sensor_id;sensor_type;location;lat;lon;timestamp;temperature;humidity
12769;DHT22;6448;48.916;8.990;2023-05-10T00:00:52;20.00;58.90
12769;DHT22;6448;48.916;8.990;2023-05-10T00:01:53;20.00;58.90
12769;DHT22;6448;48.916;8.990;2023-05-10T00:02:54;19.90;58.90
12769;DHT22;6448;48.916;8.990;2023-05-10T00:03:55;19.90;59.00
12769;DHT22;6448;48.916;8.990;2023-05-10T00:04:57;19.80;59.00
12769;DHT22;6448;48.916;8.990;2023-05-10T00:05:58;19.80;59.10
12769;DHT22;6448;48.916;8.990;2023-05-10T00:07:00;19.80;59.20
12769;DHT22;6448;48.916;8.990;2023-05-10T00:08:00;19.80;59.40
12769;DHT22;6448;48.916;8.990;2023-05-10T00:09:03;19.70;59.30
12769;DHT22;6448;48.916;8.990;2023-05-10T00:10:04;19.70;59.30
12769;DHT22;6448;48.916;8.990;2023-05-10T00:11:06;19.70;59.40
12769;DHT22;6448;48.916;8.990;2023-05-10T00:12:09;19.70;59.40
12769;DHT22;6448;48.916;8.990;2023-05-10T00:13:10;19.60;59.30
12769;DHT22;6448;48.916;8.990;2023-05-10T00:14:11;19.60;59.40
12769;DHT22;6448;48.916;8.990;2023-05-10T00:15:13;19.60;60.10
12769;DHT22;6448;48.916;8.990;2023-05-10T00:16:14;19.60;59.60
12769;DHT22;6448;48.916;8.990;2023-05-10T00:17:15;19.60;59.70
12769;DHT22;6448;48.916;8.990;2023-05-10T00:18:16;19.60;59.70
12769;DHT22;6448;48.916;8.990;2023-05-10T00:19:18;19.60;59.60
12769;DHT22;6448;48.916;8.990;2023-05-10T00:20:19;19.50;59.60
12769;DHT22;6448;48.916;8.990;2023-05-10T00:21:21;19.50;59.60
12769;DHT22;6448;48.916;8.990;2023-05-10T00:22:21;19.50;59.70
12769;DHT22;6448;48.916;8.990;2023-05-10T00:23:23;19.50;59.80
12769;DHT22;6448;48.916;8.990;2023-05-10T00:24:24;19.40;59.70
12769;DHT22;6448;48.916;8.990;2023-05-10T00:25:26;19.50;59.70
12769;DHT22;6448;48.916;8.990;2023-05-10T00:26:27;19.40;59.80
12769;DHT22;6448;48.916;8.990;2023-05-10T00:27:32;19.40;59.80
12769;DHT22;6448;48.916;8.990;2023-05-10T00:28:32;19.40;59.90
12769;DHT22;6448;48.916;8.990;2023-05-10T00:29:34;19.30;60.00
12769;DHT22;6448;48.916;8.990;2023-05-10T00:30:35;19.30;60.00
12769;DHT22;6448;48.916;8.990;2023-05-10T00:31:37;19.30;60.10
12769;DHT22;6448;48.916;8.990;2023-05-10T00:32:37;19.30;60.20
12769;DHT22;6448;48.916;8.990;2023-05-10T00:33:39;19.30;60.40
12769;DHT22;6448;48.916;8.990;2023-05-10T00:34:40;19.20;60.50
12769;DHT22;6448;48.916;8.990;2023-05-10T00:35:42;19.20;60.60
12769;DHT22;6448;48.916;8.990;2023-05-10T00:36:43;19.20;60.60
12769;DHT22;6448;48.916;8.990;2023-05-10T00:37:45;19.20;60.70
12769;DHT22;6448;48.916;8.990;2023-05-10T00:38:46;19.20;60.70
12769;DHT22;6448;48.916;8.990;2023-05-10T00:39:48;19.20;60.70
12769;DHT22;6448;48.916;8.990;2023-05-10T00:40:48;19.20;60.80
12769;DHT22;6448;48.916;8.990;2023-05-10T00:41:58;19.20;60.90
12769;DHT22;6448;48.916;8.990;2023-05-10T00:43:02;19.20;61.00
12769;DHT22;6448;48.916;8.990;2023-05-10T00:44:04;19.20;61.00
12769;DHT22;6448;48.916;8.990;2023-05-10T00:45:06;19.20;61.00
12769;DHT22;6448;48.916;8.990;2023-05-10T00:46:08;19.20;61.10
12769;DHT22;6448;48.916;8.990;2023-05-10T00:47:10;19.10;61.00
12769;DHT22;6448;48.916;8.990;2023-05-10T00:48:12;19.10;61.10
12769;DHT22;6448;48.916;8.990;2023-05-10T00:49:13;19.10;61.20
12769;DHT22;6448;48.916;8.990;2023-05-10T00:50:15;19.10;61.20
12769;DHT22;6448;48.916;8.990;2023-05-10T00:51:18;19.30;61.40
12769;DHT22;6448;48.916;8.990;2023-05-10T00:52:20;19.10;61.40
12769;DHT22;6448;48.916;8.990;2023-05-10T00:53:21;19.10;61.40
12769;DHT22;6448;48.916;8.990;2023-05-10T00:54:23;19.10;61.40
12769;DHT22;6448;48.916;8.990;2023-05-10T00:55:25;19.10;61.50
12769;DHT22;6448;48.916;8.990;2023-05-10T00:56:27;19.10;61.50
12769;DHT22;6448;48.916;8.990;2023-05-10T00:57:30;19.10;61.40
12769;DHT22;6448;48.916;8.990;2023-05-10T00:58:33;19.10;61.40
12769;DHT22;6448;48.916;8.990;2023-05-10T00:59:34;19.10;61.40
12769;DHT22;6448;48.916;8.990;2023-05-10T01:00:36;19.10;61.40
12769;DHT22;6448;48.916;8.990;2023-05-10T01:01:39;19.10;61.40
12769;DHT22;6448;48.916;8.990;2023-05-10T01:02:41;19.10;61.10
12769;DHT22;6448;48.916;8.990;2023-05-10T01:03:42;19.20;61.10
12769;DHT22;6448;48.916;8.990;2023-05-10T01:04:44;19.00;61.00
12769;DHT22;6448;48.916;8.990;2023-05-10T01:05:44;19.10;60.90
12769;DHT22;6448;48.916;8.990;2023-05-10T01:06:46;19.00;60.80
12769;DHT22;6448;48.916;8.990;2023-05-10T01:07:47;19.00;60.70
12769;DHT22;6448;48.916;8.990;2023-05-10T01:08:49;19.00;60.70
12769;DHT22;6448;48.916;8.990;2023-05-10T01:09:52;19.00;60.80
12769;DHT22;6448;48.916;8.990;2023-05-10T01:10:54;18.90;60.80
12769;DHT22;6448;48.916;8.990;2023-05-10T01:11:55;19.00;61.00
12769;DHT22;6448;48.916;8.990;2023-05-10T01:12:59;18.90;60.90
12769;DHT22;6448;48.916;8.990;2023-05-10T01:14:02;18.90;60.90
12769;DHT22;6448;48.916;8.990;2023-05-10T01:15:05;18.90;61.00
12769;DHT22;6448;48.916;8.990;2023-05-10T01:16:07;18.90;61.20
12769;DHT22;6448;48.916;8.990;2023-05-10T01:17:10;18.90;61.30
12769;DHT22;6448;48.916;8.990;2023-05-10T01:18:11;18.90;61.30
12769;DHT22;6448;48.916;8.990;2023-05-10T01:19:18;18.90;61.20
12769;DHT22;6448;48.916;8.990;2023-05-10T01:20:19;18.90;61.30
12769;DHT22;6448;48.916;8.990;2023-05-10T01:21:27;18.90;61.20
12769;DHT22;6448;48.916;8.990;2023-05-10T01:23:03;18.90;61.00
12769;DHT22;6448;48.916;8.990;2023-05-10T01:24:38;18.90;61.10
12769;DHT22;6448;48.916;8.990;2023-05-10T01:26:07;18.90;61.20
12769;DHT22;6448;48.916;8.990;2023-05-10T01:27:25;18.90;61.20
12769;DHT22;6448;48.916;8.990;2023-05-10T01:32:11;18.90;61.30
12769;DHT22;6448;48.916;8.990;2023-05-10T01:33:16;18.90;61.40
12769;DHT22;6448;48.916;8.990;2023-05-10T01:34:23;18.90;61.30
12769;DHT22;6448;48.916;8.990;2023-05-10T01:35:30;18.90;61.40
12769;DHT22;6448;48.916;8.990;2023-05-10T01:36:40;18.90;61.40
12769;DHT22;6448;48.916;8.990;2023-05-10T01:37:46;18.90;61.40
12769;DHT22;6448;48.916;8.990;2023-05-10T01:38:51;18.90;61.40
12769;DHT22;6448;48.916;8.990;2023-05-10T01:40:00;18.90;61.40
12769;DHT22;6448;48.916;8.990;2023-05-10T01:41:09;18.90;61.40
12769;DHT22;6448;48.916;8.990;2023-05-10T01:42:17;18.90;61.40
12769;DHT22;6448;48.916;8.990;2023-05-10T01:43:26;18.90;61.40
12769;DHT22;6448;48.916;8.990;2023-05-10T01:44:31;18.90;61.40
12769;DHT22;6448;48.916;8.990;2023-05-10T01:45:38;18.90;61.40
12769;DHT22;6448;48.916;8.990;2023-05-10T01:46:40;18.90;61.50
12769;DHT22;6448;48.916;8.990;2023-05-10T01:47:45;18.90;61.50
12769;DHT22;6448;48.916;8.990;2023-05-10T01:48:48;18.90;61.50
12769;DHT22;6448;48.916;8.990;2023-05-10T01:49:54;18.90;61.40
12769;DHT22;6448;48.916;8.990;2023-05-10T01:50:56;18.90;61.40
12769;DHT22;6448;48.916;8.990;2023-05-10T01:52:07;18.90;61.40
12769;DHT22;6448;48.916;8.990;2023-05-10T01:53:10;18.90;61.40
12769;DHT22;6448;48.916;8.990;2023-05-10T01:54:14;18.90;61.40
12769;DHT22;6448;48.916;8.990;2023-05-10T01:55:20;18.90;61.30
12769;DHT22;6448;48.916;8.990;2023-05-10T01:56:24;18.90;61.30
12769;DHT22;6448;48.916;8.990;2023-05-10T01:57:32;18.90;61.30
12769;DHT22;6448;48.916;8.990;2023-05-10T01:58:34;18.90;61.30
12769;DHT22;6448;48.916;8.990;2023-05-10T01:59:39;18.90;61.30
12769;DHT22;6448;48.916;8.990;2023-05-10T02:00:43;18.90;61.30
12769;DHT22;6448;48.916;8.990;2023-05-10T02:01:47;18.90;61.20
12769;DHT22;6448;48.916;8.990;2023-05-10T02:02:51;18.90;61.20
12769;DHT22;6448;48.916;8.990;2023-05-10T02:03:55;18.90;61.20
12769;DHT22;6448;48.916;8.990;2023-05-10T02:04:57;18.90;61.30
12769;DHT22;6448;48.916;8.990;2023-05-10T02:05:59;18.90;61.30
12769;DHT22;6448;48.916;8.990;2023-05-10T02:07:00;18.90;61.20
12769;DHT22;6448;48.916;8.990;2023-05-10T02:08:05;18.90;62.00
12769;DHT22;6448;48.916;8.990;2023-05-10T02:09:07;18.90;61.20
12769;DHT22;6448;48.916;8.990;2023-05-10T02:10:10;18.90;61.20
12769;DHT22;6448;48.916;8.990;2023-05-10T02:11:13;18.90;61.20
12769;DHT22;6448;48.916;8.990;2023-05-10T02:12:16;18.90;61.20
12769;DHT22;6448;48.916;8.990;2023-05-10T02:13:18;18.90;61.30
12769;DHT22;6448;48.916;8.990;2023-05-10T02:14:21;18.90;61.30
12769;DHT22;6448;48.916;8.990;2023-05-10T02:15:23;18.90;61.20
12769;DHT22;6448;48.916;8.990;2023-05-10T02:16:27;18.90;61.20
12769;DHT22;6448;48.916;8.990;2023-05-10T02:17:28;18.90;61.20
12769;DHT22;6448;48.916;8.990;2023-05-10T02:18:34;18.90;61.20
12769;DHT22;6448;48.916;8.990;2023-05-10T02:19:39;18.90;61.30
12769;DHT22;6448;48.916;8.990;2023-05-10T02:20:42;18.90;61.20
12769;DHT22;6448;48.916;8.990;2023-05-10T02:21:44;18.90;61.20
12769;DHT22;6448;48.916;8.990;2023-05-10T02:22:49;18.90;61.20
12769;DHT22;6448;48.916;8.990;2023-05-10T02:23:52;18.90;61.20
12769;DHT22;6448;48.916;8.990;2023-05-10T02:24:55;18.90;61.00
12769;DHT22;6448;48.916;8.990;2023-05-10T02:25:59;18.90;61.00
12769;DHT22;6448;48.916;8.990;2023-05-10T02:27:02;19.00;61.10
12769;DHT22;6448;48.916;8.990;2023-05-10T02:28:05;19.00;61.10
12769;DHT22;6448;48.916;8.990;2023-05-10T02:29:08;19.00;61.10
12769;DHT22;6448;48.916;8.990;2023-05-10T02:30:10;19.00;61.10
12769;DHT22;6448;48.916;8.990;2023-05-10T02:31:13;19.00;61.10
12769;DHT22;6448;48.916;8.990;2023-05-10T02:32:14;19.00;61.00
12769;DHT22;6448;48.916;8.990;2023-05-10T02:33:18;19.00;61.00
12769;DHT22;6448;48.916;8.990;2023-05-10T02:34:22;19.00;61.00
12769;DHT22;6448;48.916;8.990;2023-05-10T02:35:25;19.00;61.00
12769;DHT22;6448;48.916;8.990;2023-05-10T02:36:27;19.00;61.00
12769;DHT22;6448;48.916;8.990;2023-05-10T02:37:30;19.00;61.90
12769;DHT22;6448;48.916;8.990;2023-05-10T02:38:32;19.00;61.00
12769;DHT22;6448;48.916;8.990;2023-05-10T02:39:35;19.00;61.00
12769;DHT22;6448;48.916;8.990;2023-05-10T02:40:37;19.00;61.00
12769;DHT22;6448;48.916;8.990;2023-05-10T02:41:40;19.00;61.00
12769;DHT22;6448;48.916;8.990;2023-05-10T02:42:42;19.00;61.00
12769;DHT22;6448;48.916;8.990;2023-05-10T02:43:46;19.00;60.90
12769;DHT22;6448;48.916;8.990;2023-05-10T02:44:50;19.00;60.90
12769;DHT22;6448;48.916;8.990;2023-05-10T02:45:52;19.00;60.90
12769;DHT22;6448;48.916;8.990;2023-05-10T02:46:53;19.00;60.90
12769;DHT22;6448;48.916;8.990;2023-05-10T02:47:56;19.00;60.90
12769;DHT22;6448;48.916;8.990;2023-05-10T02:48:57;19.00;60.90
12769;DHT22;6448;48.916;8.990;2023-05-10T02:50:02;19.00;61.00
12769;DHT22;6448;48.916;8.990;2023-05-10T02:51:07;19.00;61.00
12769;DHT22;6448;48.916;8.990;2023-05-10T02:52:10;19.00;61.00
12769;DHT22;6448;48.916;8.990;2023-05-10T02:53:15;19.00;61.80
12769;DHT22;6448;48.916;8.990;2023-05-10T02:54:24;19.00;61.00
12769;DHT22;6448;48.916;8.990;2023-05-10T02:55:26;19.00;61.00
12769;DHT22;6448;48.916;8.990;2023-05-10T02:56:34;18.90;60.90
12769;DHT22;6448;48.916;8.990;2023-05-10T02:57:40;18.90;61.00
12769;DHT22;6448;48.916;8.990;2023-05-10T02:58:42;19.00;61.10
12769;DHT22;6448;48.916;8.990;2023-05-10T02:59:43;18.90;61.00
12769;DHT22;6448;48.916;8.990;2023-05-10T03:00:45;18.90;61.00
12769;DHT22;6448;48.916;8.990;2023-05-10T03:01:46;19.00;61.00
12769;DHT22;6448;48.916;8.990;2023-05-10T03:02:48;19.00;61.00
12769;DHT22;6448;48.916;8.990;2023-05-10T03:03:49;19.00;61.00
12769;DHT22;6448;48.916;8.990;2023-05-10T03:04:50;19.00;60.90
12769;DHT22;6448;48.916;8.990;2023-05-10T03:05:53;19.00;60.90
12769;DHT22;6448;48.916;8.990;2023-05-10T03:06:56;19.00;61.00
12769;DHT22;6448;48.916;8.990;2023-05-10T03:07:57;18.90;60.90
12769;DHT22;6448;48.916;8.990;2023-05-10T03:08:59;19.00;61.00
12769;DHT22;6448;48.916;8.990;2023-05-10T03:10:00;18.90;60.90
12769;DHT22;6448;48.916;8.990;2023-05-10T03:11:14;19.00;61.00
12769;DHT22;6448;48.916;8.990;2023-05-10T03:12:25;19.00;61.00
12769;DHT22;6448;48.916;8.990;2023-05-10T03:13:35;18.90;60.90
12769;DHT22;6448;48.916;8.990;2023-05-10T03:14:45;18.90;60.90
12769;DHT22;6448;48.916;8.990;2023-05-10T03:15:57;18.90;61.00
12769;DHT22;6448;48.916;8.990;2023-05-10T03:17:04;18.90;61.00
12769;DHT22;6448;48.916;8.990;2023-05-10T03:18:10;18.90;61.00
12769;DHT22;6448;48.916;8.990;2023-05-10T03:19:17;18.90;61.00
12769;DHT22;6448;48.916;8.990;2023-05-10T03:20:24;18.90;61.00
12769;DHT22;6448;48.916;8.990;2023-05-10T03:21:29;18.90;60.90
12769;DHT22;6448;48.916;8.990;2023-05-10T03:22:37;18.90;60.90
12769;DHT22;6448;48.916;8.990;2023-05-10T03:23:43;18.90;61.00
12769;DHT22;6448;48.916;8.990;2023-05-10T03:24:45;18.90;60.90
12769;DHT22;6448;48.916;8.990;2023-05-10T03:25:48;18.90;61.00
12769;DHT22;6448;48.916;8.990;2023-05-10T03:26:54;18.90;61.00
12769;DHT22;6448;48.916;8.990;2023-05-10T03:27:56;18.90;61.00
12769;DHT22;6448;48.916;8.990;2023-05-10T03:29:00;18.90;61.00
12769;DHT22;6448;48.916;8.990;2023-05-10T03:30:02;18.90;61.00
12769;DHT22;6448;48.916;8.990;2023-05-10T03:31:07;18.90;60.90
12769;DHT22;6448;48.916;8.990;2023-05-10T03:32:09;18.90;60.90
12769;DHT22;6448;48.916;8.990;2023-05-10T03:33:10;18.90;60.80
12769;DHT22;6448;48.916;8.990;2023-05-10T03:34:15;18.90;60.90
12769;DHT22;6448;48.916;8.990;2023-05-10T03:35:16;18.90;60.90
12769;DHT22;6448;48.916;8.990;2023-05-10T03:36:19;18.90;61.00
12769;DHT22;6448;48.916;8.990;2023-05-10T03:37:22;18.90;61.00
12769;DHT22;6448;48.916;8.990;2023-05-10T03:38:23;19.00;61.20
12769;DHT22;6448;48.916;8.990;2023-05-10T03:39:25;18.90;61.00
12769;DHT22;6448;48.916;8.990;2023-05-10T03:40:30;18.90;61.10
12769;DHT22;6448;48.916;8.990;2023-05-10T03:41:32;19.00;61.20
12769;DHT22;6448;48.916;8.990;2023-05-10T03:42:33;19.00;61.10
12769;DHT22;6448;48.916;8.990;2023-05-10T03:43:35;19.00;62.00
12769;DHT22;6448;48.916;8.990;2023-05-10T03:44:36;19.00;61.20
12769;DHT22;6448;48.916;8.990;2023-05-10T03:45:37;19.00;61.10
12769;DHT22;6448;48.916;8.990;2023-05-10T03:46:38;19.00;61.00
12769;DHT22;6448;48.916;8.990;2023-05-10T03:47:40;19.00;61.00
12769;DHT22;6448;48.916;8.990;2023-05-10T03:48:41;19.00;60.90
12769;DHT22;6448;48.916;8.990;2023-05-10T03:49:43;19.00;60.80
12769;DHT22;6448;48.916;8.990;2023-05-10T03:50:45;19.00;60.70
12769;DHT22;6448;48.916;8.990;2023-05-10T03:51:47;19.00;60.70
12769;DHT22;6448;48.916;8.990;2023-05-10T03:52:49;19.00;60.70
12769;DHT22;6448;48.916;8.990;2023-05-10T03:53:51;19.00;60.70
12769;DHT22;6448;48.916;8.990;2023-05-10T03:54:52;19.00;60.70
12769;DHT22;6448;48.916;8.990;2023-05-10T03:55:54;19.00;60.70
12769;DHT22;6448;48.916;8.990;2023-05-10T03:56:55;19.00;60.60
12769;DHT22;6448;48.916;8.990;2023-05-10T03:57:57;19.00;60.60
12769;DHT22;6448;48.916;8.990;2023-05-10T03:58:58;19.00;60.60
12769;DHT22;6448;48.916;8.990;2023-05-10T04:00:00;19.00;60.70
12769;DHT22;6448;48.916;8.990;2023-05-10T04:01:01;19.00;60.60
12769;DHT22;6448;48.916;8.990;2023-05-10T04:02:02;19.00;60.50
12769;DHT22;6448;48.916;8.990;2023-05-10T04:03:04;19.00;60.60
12769;DHT22;6448;48.916;8.990;2023-05-10T04:04:05;19.00;60.60
12769;DHT22;6448;48.916;8.990;2023-05-10T04:05:07;19.00;60.50
12769;DHT22;6448;48.916;8.990;2023-05-10T04:06:09;19.00;60.50
12769;DHT22;6448;48.916;8.990;2023-05-10T04:07:12;19.00;60.50
12769;DHT22;6448;48.916;8.990;2023-05-10T04:08:15;18.90;60.40
12769;DHT22;6448;48.916;8.990;2023-05-10T04:09:16;18.90;60.50
12769;DHT22;6448;48.916;8.990;2023-05-10T04:10:18;19.00;60.40
12769;DHT22;6448;48.916;8.990;2023-05-10T04:11:19;19.10;60.50
12769;DHT22;6448;48.916;8.990;2023-05-10T04:12:22;18.90;60.40
12769;DHT22;6448;48.916;8.990;2023-05-10T04:13:23;18.90;60.30
12769;DHT22;6448;48.916;8.990;2023-05-10T04:14:24;18.90;60.30
12769;DHT22;6448;48.916;8.990;2023-05-10T04:15:25;18.90;60.20
12769;DHT22;6448;48.916;8.990;2023-05-10T04:16:27;18.90;60.10
12769;DHT22;6448;48.916;8.990;2023-05-10T04:17:28;18.90;60.10
12769;DHT22;6448;48.916;8.990;2023-05-10T04:18:29;18.90;60.10
12769;DHT22;6448;48.916;8.990;2023-05-10T04:19:30;18.90;60.10
12769;DHT22;6448;48.916;8.990;2023-05-10T04:20:32;19.00;60.30
12769;DHT22;6448;48.916;8.990;2023-05-10T04:21:33;18.80;60.10
12769;DHT22;6448;48.916;8.990;2023-05-10T04:22:35;18.80;60.10
12769;DHT22;6448;48.916;8.990;2023-05-10T04:23:37;18.80;60.20
12769;DHT22;6448;48.916;8.990;2023-05-10T04:24:39;18.80;60.30
12769;DHT22;6448;48.916;8.990;2023-05-10T04:25:40;18.80;60.30
12769;DHT22;6448;48.916;8.990;2023-05-10T04:26:42;18.80;60.30
12769;DHT22;6448;48.916;8.990;2023-05-10T04:27:42;18.80;60.30
12769;DHT22;6448;48.916;8.990;2023-05-10T04:28:44;18.80;60.40
12769;DHT22;6448;48.916;8.990;2023-05-10T04:29:45;18.80;60.40
12769;DHT22;6448;48.916;8.990;2023-05-10T04:30:47;18.80;60.40
12769;DHT22;6448;48.916;8.990;2023-05-10T04:31:47;18.80;60.40
12769;DHT22;6448;48.916;8.990;2023-05-10T04:32:49;18.80;60.30
12769;DHT22;6448;48.916;8.990;2023-05-10T04:33:50;18.80;60.40
12769;DHT22;6448;48.916;8.990;2023-05-10T04:34:52;18.80;60.40
12769;DHT22;6448;48.916;8.990;2023-05-10T04:35:53;18.80;60.50
12769;DHT22;6448;48.916;8.990;2023-05-10T04:36:55;18.80;60.50
12769;DHT22;6448;48.916;8.990;2023-05-10T04:37:56;18.80;60.50
12769;DHT22;6448;48.916;8.990;2023-05-10T04:38:59;18.80;60.50
12769;DHT22;6448;48.916;8.990;2023-05-10T04:40:00;18.80;60.50
12769;DHT22;6448;48.916;8.990;2023-05-10T04:41:05;18.80;60.50
12769;DHT22;6448;48.916;8.990;2023-05-10T04:42:06;18.80;60.50
12769;DHT22;6448;48.916;8.990;2023-05-10T04:43:08;18.80;60.50
12769;DHT22;6448;48.916;8.990;2023-05-10T04:44:09;18.80;60.50
12769;DHT22;6448;48.916;8.990;2023-05-10T04:45:10;18.80;60.50
12769;DHT22;6448;48.916;8.990;2023-05-10T04:46:11;18.80;60.40
12769;DHT22;6448;48.916;8.990;2023-05-10T04:47:13;18.80;60.40
12769;DHT22;6448;48.916;8.990;2023-05-10T04:48:16;18.80;60.50
12769;DHT22;6448;48.916;8.990;2023-05-10T04:49:17;18.90;60.50
12769;DHT22;6448;48.916;8.990;2023-05-10T04:50:19;18.90;60.60
12769;DHT22;6448;48.916;8.990;2023-05-10T04:51:20;18.90;60.50
12769;DHT22;6448;48.916;8.990;2023-05-10T04:52:22;18.90;60.50
12769;DHT22;6448;48.916;8.990;2023-05-10T04:53:22;18.90;60.50
12769;DHT22;6448;48.916;8.990;2023-05-10T04:54:25;18.90;60.50
12769;DHT22;6448;48.916;8.990;2023-05-10T04:55:26;18.90;60.50
12769;DHT22;6448;48.916;8.990;2023-05-10T04:56:28;18.90;60.50
12769;DHT22;6448;48.916;8.990;2023-05-10T04:57:29;18.90;60.50
12769;DHT22;6448;48.916;8.990;2023-05-10T04:58:30;18.90;60.50
12769;DHT22;6448;48.916;8.990;2023-05-10T04:59:31;19.10;60.70
12769;DHT22;6448;48.916;8.990;2023-05-10T05:00:33;18.90;60.50
12769;DHT22;6448;48.916;8.990;2023-05-10T05:01:34;18.90;60.50
12769;DHT22;6448;48.916;8.990;2023-05-10T05:02:35;18.90;61.30
12769;DHT22;6448;48.916;8.990;2023-05-10T05:03:36;18.90;60.50
12769;DHT22;6448;48.916;8.990;2023-05-10T05:04:38;18.90;60.60
12769;DHT22;6448;48.916;8.990;2023-05-10T05:05:39;18.90;60.50
12769;DHT22;6448;48.916;8.990;2023-05-10T05:06:40;18.90;60.50
12769;DHT22;6448;48.916;8.990;2023-05-10T05:07:41;18.90;61.30
12769;DHT22;6448;48.916;8.990;2023-05-10T05:08:43;18.90;60.50
12769;DHT22;6448;48.916;8.990;2023-05-10T05:09:45;18.90;60.50
12769;DHT22;6448;48.916;8.990;2023-05-10T05:10:48;18.80;60.50
12769;DHT22;6448;48.916;8.990;2023-05-10T05:11:50;18.90;60.60
12769;DHT22;6448;48.916;8.990;2023-05-10T05:12:52;18.90;60.60
12769;DHT22;6448;48.916;8.990;2023-05-10T05:13:52;18.90;60.70
12769;DHT22;6448;48.916;8.990;2023-05-10T05:14:54;18.80;60.60
12769;DHT22;6448;48.916;8.990;2023-05-10T05:15:55;18.90;60.70
12769;DHT22;6448;48.916;8.990;2023-05-10T05:16:57;18.90;60.60
12769;DHT22;6448;48.916;8.990;2023-05-10T05:17:58;18.90;60.70
12769;DHT22;6448;48.916;8.990;2023-05-10T05:19:00;18.90;60.70
12769;DHT22;6448;48.916;8.990;2023-05-10T05:20:01;18.80;60.70
12769;DHT22;6448;48.916;8.990;2023-05-10T05:21:03;18.90;60.80
12769;DHT22;6448;48.916;8.990;2023-05-10T05:22:14;18.90;60.80
12769;DHT22;6448;48.916;8.990;2023-05-10T05:23:15;18.90;60.70
12769;DHT22;6448;48.916;8.990;2023-05-10T05:24:17;18.90;60.80
12769;DHT22;6448;48.916;8.990;2023-05-10T05:25:19;18.90;60.80
12769;DHT22;6448;48.916;8.990;2023-05-10T05:26:20;18.90;60.80
12769;DHT22;6448;48.916;8.990;2023-05-10T05:27:21;18.90;60.80
12769;DHT22;6448;48.916;8.990;2023-05-10T05:28:24;18.90;60.80
12769;DHT22;6448;48.916;8.990;2023-05-10T05:29:25;18.90;60.80
12769;DHT22;6448;48.916;8.990;2023-05-10T05:30:27;18.90;60.90
12769;DHT22;6448;48.916;8.990;2023-05-10T05:31:28;18.90;60.80
12769;DHT22;6448;48.916;8.990;2023-05-10T05:32:30;18.90;60.80
12769;DHT22;6448;48.916;8.990;2023-05-10T05:33:30;18.90;60.80
12769;DHT22;6448;48.916;8.990;2023-05-10T05:34:32;18.90;60.80
12769;DHT22;6448;48.916;8.990;2023-05-10T05:35:33;18.90;60.80
12769;DHT22;6448;48.916;8.990;2023-05-10T05:36:36;18.90;60.80
12769;DHT22;6448;48.916;8.990;2023-05-10T05:37:38;18.90;60.90
12769;DHT22;6448;48.916;8.990;2023-05-10T05:38:40;18.90;60.80
12769;DHT22;6448;48.916;8.990;2023-05-10T05:39:41;18.90;60.80
12769;DHT22;6448;48.916;8.990;2023-05-10T05:40:45;18.90;60.70
12769;DHT22;6448;48.916;8.990;2023-05-10T05:41:47;18.90;60.80
12769;DHT22;6448;48.916;8.990;2023-05-10T05:42:48;18.90;60.80
12769;DHT22;6448;48.916;8.990;2023-05-10T05:43:50;18.90;60.90
12769;DHT22;6448;48.916;8.990;2023-05-10T05:44:50;18.90;61.70
12769;DHT22;6448;48.916;8.990;2023-05-10T05:45:52;18.90;60.90
12769;DHT22;6448;48.916;8.990;2023-05-10T05:46:53;18.90;61.00
12769;DHT22;6448;48.916;8.990;2023-05-10T05:47:55;18.90;61.00
12769;DHT22;6448;48.916;8.990;2023-05-10T05:48:56;18.90;61.30
12769;DHT22;6448;48.916;8.990;2023-05-10T05:49:58;18.90;61.20
12769;DHT22;6448;48.916;8.990;2023-05-10T05:50:59;18.90;61.20
12769;DHT22;6448;48.916;8.990;2023-05-10T05:52:01;18.90;61.10
12769;DHT22;6448;48.916;8.990;2023-05-10T05:53:02;18.90;61.20
12769;DHT22;6448;48.916;8.990;2023-05-10T05:54:04;18.90;61.20
12769;DHT22;6448;48.916;8.990;2023-05-10T05:55:05;18.90;61.20
12769;DHT22;6448;48.916;8.990;2023-05-10T05:56:08;18.90;61.30
12769;DHT22;6448;48.916;8.990;2023-05-10T05:57:10;19.00;61.30
12769;DHT22;6448;48.916;8.990;2023-05-10T05:58:10;18.90;61.30
12769;DHT22;6448;48.916;8.990;2023-05-10T05:59:12;18.90;61.30
12769;DHT22;6448;48.916;8.990;2023-05-10T06:00:14;18.90;61.30
12769;DHT22;6448;48.916;8.990;2023-05-10T06:01:15;18.90;61.30
12769;DHT22;6448;48.916;8.990;2023-05-10T06:02:17;19.00;61.30
12769;DHT22;6448;48.916;8.990;2023-05-10T06:03:18;19.00;61.30
12769;DHT22;6448;48.916;8.990;2023-05-10T06:04:21;19.00;61.30
12769;DHT22;6448;48.916;8.990;2023-05-10T06:05:21;19.00;61.30
12769;DHT22;6448;48.916;8.990;2023-05-10T06:06:23;19.00;61.30
12769;DHT22;6448;48.916;8.990;2023-05-10T06:07:24;19.00;61.30
12769;DHT22;6448;48.916;8.990;2023-05-10T06:08:26;19.00;61.30
12769;DHT22;6448;48.916;8.990;2023-05-10T06:09:26;19.00;61.30
12769;DHT22;6448;48.916;8.990;2023-05-10T06:10:28;19.00;61.20
12769;DHT22;6448;48.916;8.990;2023-05-10T06:11:30;19.00;61.20
12769;DHT22;6448;48.916;8.990;2023-05-10T06:12:32;19.00;61.30
12769;DHT22;6448;48.916;8.990;2023-05-10T06:13:33;19.00;61.20
12769;DHT22;6448;48.916;8.990;2023-05-10T06:14:35;19.00;61.20
12769;DHT22;6448;48.916;8.990;2023-05-10T06:15:36;19.00;61.20
12769;DHT22;6448;48.916;8.990;2023-05-10T06:16:38;19.00;61.20
12769;DHT22;6448;48.916;8.990;2023-05-10T06:17:38;19.00;61.20
12769;DHT22;6448;48.916;8.990;2023-05-10T06:18:40;19.00;61.20
12769;DHT22;6448;48.916;8.990;2023-05-10T06:19:41;19.00;61.10
12769;DHT22;6448;48.916;8.990;2023-05-10T06:20:43;19.00;61.20
12769;DHT22;6448;48.916;8.990;2023-05-10T06:21:44;19.00;61.00
12769;DHT22;6448;48.916;8.990;2023-05-10T06:22:45;19.10;61.10
12769;DHT22;6448;48.916;8.990;2023-05-10T06:23:46;19.00;61.00
12769;DHT22;6448;48.916;8.990;2023-05-10T06:24:48;19.10;61.10
12769;DHT22;6448;48.916;8.990;2023-05-10T06:25:49;19.00;61.00
12769;DHT22;6448;48.916;8.990;2023-05-10T06:26:52;19.10;61.00
12769;DHT22;6448;48.916;8.990;2023-05-10T06:27:53;19.10;61.00
12769;DHT22;6448;48.916;8.990;2023-05-10T06:28:57;19.00;60.90
12769;DHT22;6448;48.916;8.990;2023-05-10T06:29:59;19.00;60.80
12769;DHT22;6448;48.916;8.990;2023-05-10T06:31:00;19.10;60.80
12769;DHT22;6448;48.916;8.990;2023-05-10T06:32:02;19.10;60.60
12769;DHT22;6448;48.916;8.990;2023-05-10T06:33:04;19.10;60.50
12769;DHT22;6448;48.916;8.990;2023-05-10T06:34:06;19.00;60.40
12769;DHT22;6448;48.916;8.990;2023-05-10T06:35:09;19.00;60.30
12769;DHT22;6448;48.916;8.990;2023-05-10T06:36:10;19.00;60.30
12769;DHT22;6448;48.916;8.990;2023-05-10T06:37:11;19.00;60.30
12769;DHT22;6448;48.916;8.990;2023-05-10T06:38:13;19.00;60.10
12769;DHT22;6448;48.916;8.990;2023-05-10T06:39:15;19.00;60.20
12769;DHT22;6448;48.916;8.990;2023-05-10T06:40:17;19.10;60.30
12769;DHT22;6448;48.916;8.990;2023-05-10T06:41:18;19.00;60.20
12769;DHT22;6448;48.916;8.990;2023-05-10T06:42:22;19.10;60.20
12769;DHT22;6448;48.916;8.990;2023-05-10T06:43:26;19.00;60.20
12769;DHT22;6448;48.916;8.990;2023-05-10T06:44:29;19.10;60.30
12769;DHT22;6448;48.916;8.990;2023-05-10T06:45:29;19.10;60.20
12769;DHT22;6448;48.916;8.990;2023-05-10T06:46:31;19.10;60.20